Аэропорт: Мирный. Мирный

ICAO: UERR

METAR:
2016/09/05 11:30
UERR 051130Z 28003MPS 9999 OVC012 09/08 Q1019 R25/390350 NOSIG RMK QFE733
METAR:
2016/09/05 12:21
TAF UERR 051100Z 0512/0612 29005MPS 9999 BKN007 OVC015CB 
      TEMPO 0512/0515 1000 -SHRA BR BKN004 OVC015CB 
      TEMPO 0515/0524 0300 FG VV002